Time;durP1;ratioP1;P1;durP2;ratioP2;P2;SDS_P1;SDS_P2;PMS_P1;PMS_P2;Temp;Humidity;BMP_temperature;BMP_pressure;BME280_temperature;BME280_humidity;BME280_pressure;Samples;Min_cycle;Max_cycle;Signal;HPM_P1;HPM_P2
2021/08/27 00:02:19;;;;;;;31.38;23.98;;;18.80;99.90;;;;;;5089001;28;20059;-66
2021/08/27 00:04:45;;;;;;;35.25;25.63;;;18.90;99.90;;;;;;5075195;28;20038;-66
2021/08/27 00:07:11;;;;;;;31.63;24.95;;;18.80;99.90;;;;;;5075181;28;20035;-66
2021/08/27 00:09:37;;;;;;;33.38;25.38;;;18.90;99.90;;;;;;5093384;28;20377;-65
2021/08/27 00:12:03;;;;;;;35.20;25.83;;;18.90;99.90;;;;;;5093271;28;20030;-66
2021/08/27 00:14:32;;;;;;;30.23;24.33;;;18.90;99.90;;;;;;5075074;28;20024;-66
2021/08/27 00:16:58;;;;;;;28.85;23.38;;;18.90;99.90;;;;;;5075025;28;20063;-66
2021/08/27 00:19:24;;;;;;;29.13;23.05;;;18.90;99.90;;;;;;5092973;28;20059;-66
2021/08/27 00:21:49;;;;;;;29.25;24.35;;;18.90;99.90;;;;;;5092904;28;20161;-65
2021/08/27 00:24:15;;;;;;;27.23;22.40;;;18.90;99.90;;;;;;5075021;28;20032;-67
2021/08/27 00:26:41;;;;;;;28.73;21.80;;;18.80;99.90;;;;;;5075302;28;20024;-68
2021/08/27 00:29:08;;;;;;;27.10;22.50;;;;;;;;;;5092904;28;20029;-67
2021/08/27 00:31:34;;;;;;;28.30;21.73;;;18.80;99.90;;;;;;5093141;28;20024;-67
2021/08/27 00:34:00;;;;;;;23.88;20.73;;;18.70;99.90;;;;;;5094662;28;20027;-67
2021/08/27 00:36:26;;;;;;;27.88;20.25;;;18.70;99.90;;;;;;5079041;28;20103;-67
2021/08/27 00:38:52;;;;;;;22.23;19.80;;;18.60;99.90;;;;;;5097621;28;20477;-68
2021/08/27 00:41:18;;;;;;;23.20;19.60;;;18.60;99.90;;;;;;5096891;28;20028;-67
2021/08/27 00:43:45;;;;;;;24.30;20.38;;;;;;;;;;5097045;28;20036;-68
2021/08/27 00:46:11;;;;;;;24.33;19.90;;;;;;;;;;5097150;28;20024;-67
2021/08/27 00:48:37;;;;;;;23.95;19.50;;;;;;;;;;5097134;28;20418;-67
2021/08/27 00:51:04;;;;;;;26.30;20.40;;;;;;;;;;5097028;28;20030;-67
2021/08/27 00:53:31;;;;;;;25.42;20.42;;;;;;;;;;5096985;28;20031;-67
2021/08/27 00:55:57;;;;;;;25.75;20.40;;;;;;;;;;5096936;28;20025;-67
2021/08/27 00:58:24;;;;;;;23.75;21.10;;;;;;;;;;5078464;28;20016;-67
2021/08/27 01:00:50;;;;;;;26.05;21.05;;;;;;;;;;5096560;28;20104;-67
2021/08/27 01:03:20;;;;;;;29.95;20.52;;;;;;;;;;5096860;28;20060;-67
2021/08/27 01:06:18;;;;;;;22.88;20.40;;;18.50;99.90;;;;;;5096432;28;20035;-68
2021/08/27 01:08:55;;;;;;;24.52;20.15;;;18.30;99.90;;;;;;5096768;28;20024;-67
2021/08/27 01:11:35;;;;;;;26.73;22.27;;;18.30;99.90;;;;;;5096415;28;20399;-67
2021/08/27 01:14:07;;;;;;;26.08;22.00;;;18.30;99.90;;;;;;5096697;28;20387;-67
2021/08/27 01:17:01;;;;;;;31.05;21.05;;;18.30;99.90;;;;;;5096538;28;20464;-69
2021/08/27 01:19:47;;;;;;;29.42;22.02;;;18.30;99.90;;;;;;5095887;28;20044;-67
2021/08/27 01:22:12;;;;;;;25.77;22.10;;;18.20;99.90;;;;;;5054753;28;20085;-68
2021/08/27 01:24:41;;;;;;;26.40;21.08;;;18.10;99.90;;;;;;5096459;28;20036;-68
2021/08/27 01:27:10;;;;;;;25.05;21.83;;;18.10;99.90;;;;;;5096078;28;20467;-68
2021/08/27 01:30:03;;;;;;;29.63;21.88;;;18.10;99.90;;;;;;5096396;28;20028;-67
2021/08/27 01:32:43;;;;;;;27.67;21.67;;;18.20;99.90;;;;;;5096309;28;20028;-69
2021/08/27 01:35:11;;;;;;;24.50;21.20;;;18.20;99.90;;;;;;5096556;28;20027;-67
2021/08/27 01:37:39;;;;;;;23.25;20.17;;;18.30;99.90;;;;;;5077954;28;20476;-67
2021/08/27 01:40:06;;;;;;;27.63;19.63;;;18.30;99.90;;;;;;5096159;28;20054;-67
2021/08/27 01:42:33;;;;;;;26.92;21.02;;;18.30;99.90;;;;;;5096045;28;20031;-67
2021/08/27 01:45:00;;;;;;;25.25;21.80;;;18.20;99.90;;;;;;5095918;28;20059;-67
2021/08/27 01:47:31;;;;;;;25.75;20.55;;;18.30;99.90;;;;;;5077767;28;20059;-68
2021/08/27 01:49:58;;;;;;;31.73;21.88;;;18.30;99.90;;;;;;5095908;28;20035;-67
2021/08/27 01:52:25;;;;;;;33.80;23.63;;;18.30;99.90;;;;;;5077635;28;20553;-68
2021/08/27 01:54:52;;;;;;;29.35;23.58;;;18.30;99.90;;;;;;5095823;28;20024;-69
2021/08/27 01:57:19;;;;;;;34.58;25.13;;;18.30;99.90;;;;;;5077538;28;20032;-69
2021/08/27 01:59:47;;;;;;;31.63;25.50;;;18.30;99.90;;;;;;5096117;28;20192;-69
2021/08/27 02:02:16;;;;;;;31.05;26.48;;;18.20;99.90;;;;;;5095221;28;20055;-67
2021/08/27 02:04:46;;;;;;;33.88;26.63;;;18.20;99.90;;;;;;5095535;28;20034;-67
2021/08/27 02:07:13;;;;;;;33.40;28.20;;;18.20;99.90;;;;;;5095616;28;20032;-66
2021/08/27 02:09:39;;;;;;;35.60;26.85;;;18.20;99.90;;;;;;5077345;28;20085;-67
2021/08/27 02:12:06;;;;;;;34.83;27.65;;;18.20;99.90;;;;;;5095441;28;20476;-69
2021/08/27 02:14:34;;;;;;;36.75;28.55;;;18.20;99.90;;;;;;5095445;28;20071;-71
2021/08/27 02:17:03;;;;;;;35.20;26.85;;;18.20;99.90;;;;;;5095362;28;20020;-71
2021/08/27 02:19:29;;;;;;;35.25;26.10;;;18.30;99.90;;;;;;5077231;28;20030;-70
2021/08/27 02:21:56;;;;;;;37.00;26.80;;;18.30;99.90;;;;;;5095253;28;20024;-66
2021/08/27 02:24:27;;;;;;;39.83;28.17;;;18.30;99.90;;;;;;5094874;28;20043;-66
2021/08/27 02:26:54;;;;;;;37.70;27.27;;;18.30;99.90;;;;;;5095284;28;20101;-66
2021/08/27 02:29:23;;;;;;;34.03;26.55;;;18.20;99.90;;;;;;5095201;28;20028;-66
2021/08/27 02:31:55;;;;;;;34.92;25.63;;;18.30;99.90;;;;;;5076934;28;20024;-66
2021/08/27 02:34:22;;;;;;;31.92;24.63;;;18.30;99.90;;;;;;5076885;28;20035;-65
2021/08/27 02:36:53;;;;;;;33.22;25.63;;;18.40;99.90;;;;;;5094998;28;20485;-66
2021/08/27 02:39:22;;;;;;;34.53;28.25;;;18.40;99.90;;;;;;5094998;28;20047;-66
2021/08/27 02:41:49;;;;;;;38.55;28.27;;;18.30;99.90;;;;;;5094912;28;20047;-65
2021/08/27 02:44:15;;;;;;;36.83;30.95;;;18.10;99.90;;;;;;5094754;28;20039;-66
2021/08/27 02:46:40;;;;;;;35.47;29.45;;;18.10;99.90;;;;;;5094782;28;20024;-65
2021/08/27 02:49:06;;;;;;;33.97;28.27;;;18.10;99.90;;;;;;5094825;28;20043;-65
2021/08/27 02:51:43;;;;;;;42.75;27.92;;;18.20;99.90;;;;;;5094923;28;20085;-66
2021/08/27 02:54:10;;;;;;;42.03;30.90;;;18.20;99.90;;;;;;5094994;28;20044;-66
2021/08/27 02:56:39;;;;;;;40.08;30.48;;;18.10;99.90;;;;;;5075867;28;20028;-66
2021/08/27 02:59:11;;;;;;;39.22;30.52;;;17.80;99.90;;;;;;5094594;28;20104;-66
2021/08/27 03:01:48;;;;;;;43.72;31.45;;;17.70;99.90;;;;;;5094504;28;20093;-66
2021/08/27 03:04:28;;;;;;;41.10;32.65;;;17.60;99.90;;;;;;5076312;28;20028;-66
2021/08/27 03:07:06;;;;;;;43.20;32.42;;;17.50;99.90;;;;;;5094747;28;20034;-66
2021/08/27 03:09:44;;;;;;;40.30;35.50;;;17.50;99.90;;;;;;5076195;28;20447;-65
2021/08/27 03:12:13;;;;;;;47.92;37.50;;;17.40;99.90;;;;;;5094631;28;20020;-67
2021/08/27 03:14:43;;;;;;;52.97;39.03;;;17.20;99.90;;;;;;5076054;28;20055;-66
2021/08/27 03:17:15;;;;;;;50.88;39.90;;;17.20;99.90;;;;;;5094000;28;20028;-65
2021/08/27 03:19:51;;;;;;;53.47;42.55;;;17.10;99.90;;;;;;5094185;28;20032;-66
2021/08/27 03:22:23;;;;;;;52.25;42.30;;;17.10;99.90;;;;;;5094200;28;20024;-68
2021/08/27 03:25:07;;;;;;;54.35;42.97;;;17.00;99.90;;;;;;5094074;28;20085;-68
2021/08/27 03:27:43;;;;;;;53.67;43.42;;;17.00;99.90;;;;;;5075849;28;20035;-67
2021/08/27 03:30:18;;;;;;;61.22;41.97;;;17.00;99.90;;;;;;5093988;28;20060;-68
2021/08/27 03:32:47;;;;;;;52.33;41.53;;;17.00;99.90;;;;;;5093957;28;20111;-69
2021/08/27 03:35:15;;;;;;;55.28;44.15;;;17.00;99.90;;;;;;5093544;28;20388;-69
2021/08/27 03:37:41;;;;;;;57.08;43.85;;;16.90;99.90;;;;;;5075592;28;20050;-67
2021/08/27 03:40:09;;;;;;;52.25;43.47;;;16.90;99.90;;;;;;5093935;28;20041;-68
2021/08/27 03:42:36;;;;;;;59.03;45.17;;;16.80;99.90;;;;;;5093777;28;20024;-69
2021/08/27 03:45:03;;;;;;;49.60;43.55;;;16.70;99.90;;;;;;5075499;28;20031;-70
2021/08/27 03:47:31;;;;;;;55.83;44.67;;;16.60;99.90;;;;;;5093667;28;20119;-68
2021/08/27 03:49:57;;;;;;;51.78;43.25;;;16.50;99.90;;;;;;5093724;28;20132;-69
2021/08/27 03:52:24;;;;;;;54.10;44.08;;;16.50;99.90;;;;;;5093597;28;20032;-68
2021/08/27 03:54:50;;;;;;;51.53;41.70;;;16.40;99.90;;;;;;5075362;28;20062;-68
2021/08/27 03:57:17;;;;;;;48.05;37.08;;;16.30;99.90;;;;;;5093539;28;20417;-69
2021/08/27 03:59:45;;;;;;;48.00;36.28;;;16.40;99.90;;;;;;5093536;28;20031;-68
2021/08/27 04:02:12;;;;;;;32.70;26.75;;;16.40;99.90;;;;;;5074751;28;20057;-68
2021/08/27 04:04:38;;;;;;;30.02;18.73;;;16.30;99.90;;;;;;5075095;28;20127;-68
2021/08/27 04:07:05;;;;;;;22.83;11.43;;;16.30;99.90;;;;;;5093724;28;20031;-66
2021/08/27 04:09:34;;;;;;;14.60;9.77;;;16.20;99.90;;;;;;5092539;28;20107;-68
2021/08/27 04:12:04;;;;;;;11.38;8.07;;;16.20;99.90;;;;;;5075094;28;20035;-67
2021/08/27 04:14:30;;;;;;;7.85;6.32;;;16.10;99.90;;;;;;5093018;28;20085;-66
2021/08/27 04:16:56;;;;;;;9.13;6.35;;;16.00;99.90;;;;;;5075078;28;20062;-68
2021/08/27 04:19:22;;;;;;;10.88;5.43;;;15.90;99.90;;;;;;5092889;28;20373;-69
2021/08/27 04:21:48;;;;;;;9.32;6.03;;;15.90;99.90;;;;;;5093240;28;20055;-67
2021/08/27 04:24:14;;;;;;;11.75;5.68;;;16.00;99.90;;;;;;5093071;28;20107;-67
2021/08/27 04:26:40;;;;;;;8.43;5.80;;;16.00;99.90;;;;;;5074929;28;20028;-67
2021/08/27 04:29:10;;;;;;;12.32;5.43;;;15.90;99.90;;;;;;5093402;28;20016;-68
2021/08/27 04:31:36;;;;;;;8.13;4.93;;;16.00;99.90;;;;;;5093164;28;20028;-67
2021/08/27 04:34:02;;;;;;;8.02;4.90;;;15.90;99.90;;;;;;5074848;28;20161;-68
2021/08/27 04:36:28;;;;;;;6.00;4.45;;;15.90;99.90;;;;;;5093039;28;20111;-68
2021/08/27 04:38:54;;;;;;;8.15;5.05;;;15.90;99.90;;;;;;5093306;28;20024;-67
2021/08/27 04:41:20;;;;;;;7.18;4.25;;;15.90;99.90;;;;;;5093036;28;20024;-66
2021/08/27 04:43:48;;;;;;;8.43;4.65;;;15.90;99.90;;;;;;5092943;28;20052;-67
2021/08/27 04:46:14;;;;;;;11.73;4.20;;;15.90;99.90;;;;;;5093002;28;20064;-66
2021/08/27 04:48:40;;;;;;;9.48;4.55;;;16.00;99.90;;;;;;5092984;28;20077;-67
2021/08/27 04:51:06;;;;;;;10.77;4.43;;;16.00;99.90;;;;;;5093301;28;20039;-65
2021/08/27 04:53:32;;;;;;;9.10;4.68;;;16.00;99.90;;;;;;5092886;28;20024;-65
2021/08/27 04:55:58;;;;;;;8.88;4.93;;;16.00;99.90;;;;;;5092570;28;20081;-65
2021/08/27 04:58:25;;;;;;;6.93;4.05;;;15.90;99.90;;;;;;5092815;28;20100;-66
2021/08/27 05:00:52;;;;;;;6.20;4.40;;;15.90;99.90;;;;;;5092638;28;20476;-65
2021/08/27 05:03:19;;;;;;;6.32;3.83;;;16.00;99.90;;;;;;5092866;28;20469;-67
2021/08/27 05:05:45;;;;;;;5.65;3.85;;;15.90;99.90;;;;;;5074493;28;20032;-67
2021/08/27 05:08:11;;;;;;;4.43;3.33;;;15.90;99.90;;;;;;5074650;28;20508;-67
2021/08/27 05:10:37;;;;;;;5.57;3.40;;;15.80;99.90;;;;;;5092804;28;20107;-68
2021/08/27 05:13:03;;;;;;;6.30;3.38;;;15.70;99.90;;;;;;5092992;28;20055;-66
2021/08/27 05:15:29;;;;;;;5.38;3.28;;;15.70;99.90;;;;;;5092729;28;20076;-67
2021/08/27 05:17:55;;;;;;;5.82;3.60;;;15.70;99.90;;;;;;5092459;28;20035;-67
2021/08/27 05:20:21;;;;;;;4.00;3.08;;;15.70;99.90;;;;;;5076503;28;20381;-67
2021/08/27 05:22:46;;;;;;;5.53;2.67;;;15.60;99.90;;;;;;5096164;28;20492;-67
2021/08/27 05:25:12;;;;;;;5.18;3.03;;;15.60;99.90;;;;;;5077797;28;20028;-67
2021/08/27 05:27:38;;;;;;;3.75;2.42;;;15.50;99.90;;;;;;5096328;28;20081;-67
2021/08/27 05:30:12;;;;;;;3.38;2.38;;;15.50;99.90;;;;;;5096495;28;20028;-67
2021/08/27 05:32:38;;;;;;;5.15;2.70;;;15.50;99.90;;;;;;5077999;28;20468;-68
2021/08/27 05:35:04;;;;;;;7.50;2.85;;;15.40;99.90;;;;;;5096224;28;20085;-69
2021/08/27 05:37:30;;;;;;;5.57;2.60;;;15.40;99.90;;;;;;5077919;28;20031;-68
2021/08/27 05:39:56;;;;;;;4.70;2.42;;;15.40;99.90;;;;;;5096363;28;20020;-68
2021/08/27 05:42:22;;;;;;;3.08;2.47;;;15.40;99.90;;;;;;5096141;28;20361;-68
2021/08/27 05:44:48;;;;;;;4.10;2.70;;;;;;;;;;5077596;28;20036;-69
2021/08/27 05:47:15;;;;;;;16.42;4.45;;;15.40;99.90;;;;;;5096253;28;20081;-68
2021/08/27 05:49:40;;;;;;;8.82;4.50;;;15.40;99.90;;;;;;5077680;28;20034;-68
2021/08/27 05:52:06;;;;;;;9.60;3.70;;;15.40;99.90;;;;;;5095623;28;20099;-67
2021/08/27 05:54:32;;;;;;;5.45;3.30;;;15.40;99.90;;;;;;5077382;28;20056;-68
2021/08/27 05:56:58;;;;;;;6.70;3.80;;;15.30;99.90;;;;;;5095680;28;20075;-69
2021/08/27 05:59:24;;;;;;;9.10;4.35;;;15.30;99.90;;;;;;5095684;28;20035;-68
2021/08/27 06:01:50;;;;;;;4.70;3.15;;;15.30;99.90;;;;;;5077285;28;20062;-67
2021/08/27 06:04:16;;;;;;;7.07;3.17;;;15.30;99.90;;;;;;5095562;28;20032;-67
2021/08/27 06:06:41;;;;;;;6.15;3.70;;;15.30;99.90;;;;;;5095504;28;20060;-67
2021/08/27 06:09:07;;;;;;;4.82;3.53;;;15.30;99.90;;;;;;5095253;28;20028;-68
2021/08/27 06:11:37;;;;;;;9.95;4.22;;;15.30;99.90;;;;;;5077384;28;20036;-67
2021/08/27 06:14:07;;;;;;;5.70;3.20;;;15.30;99.90;;;;;;5095746;28;20032;-67
2021/08/27 06:16:33;;;;;;;6.82;3.63;;;15.30;99.90;;;;;;5095471;28;20028;-67
2021/08/27 06:19:00;;;;;;;3.17;2.70;;;15.30;99.90;;;;;;5095424;28;20027;-67
2021/08/27 06:21:26;;;;;;;5.00;3.40;;;15.20;99.90;;;;;;5095337;28;20032;-67
2021/08/27 06:23:54;;;;;;;6.90;5.47;;;15.20;99.90;;;;;;5094848;28;20035;-69
2021/08/27 06:26:20;;;;;;;6.95;3.78;;;15.30;99.90;;;;;;5076996;28;20469;-69
2021/08/27 06:28:46;;;;;;;9.68;3.60;;;15.30;99.90;;;;;;5077132;28;20028;-70
2021/08/27 06:31:12;;;;;;;6.40;3.10;;;15.30;99.90;;;;;;5093951;28;20020;-70
2021/08/27 06:33:38;;;;;;;7.70;3.50;;;15.30;99.90;;;;;;5095074;28;20176;-69
2021/08/27 06:36:05;;;;;;;7.32;3.40;;;15.40;99.90;;;;;;5095097;28;20520;-69
2021/08/27 06:38:31;;;;;;;6.38;3.35;;;15.40;99.90;;;;;;5094954;28;20074;-68
2021/08/27 06:41:00;;;;;;;3.75;3.15;;;15.40;99.90;;;;;;5074617;28;20028;-67
2021/08/27 06:43:28;;;;;;;3.50;3.10;;;15.40;99.90;;;;;;5094229;28;20021;-67
2021/08/27 06:46:01;;;;;;;5.88;3.22;;;15.40;99.90;;;;;;5076544;28;20456;-67
2021/08/27 06:48:27;;;;;;;4.60;2.97;;;15.40;99.90;;;;;;5086823;28;20025;-67
2021/08/27 06:50:53;;;;;;;4.28;3.10;;;15.30;99.90;;;;;;5056425;28;20024;-71
2021/08/27 06:53:20;;;;;;;4.85;2.97;;;15.30;99.90;;;;;;5074671;28;20032;-68
2021/08/27 06:55:46;;;;;;;5.78;3.40;;;15.30;99.90;;;;;;5074401;28;20034;-70
2021/08/27 06:58:12;;;;;;;3.90;3.47;;;15.30;99.90;;;;;;5074350;28;20028;-67
2021/08/27 07:00:39;;;;;;;8.45;4.47;;;15.30;99.90;;;;;;5074010;28;20029;-66
2021/08/27 07:03:05;;;;;;;4.65;4.15;;;15.30;99.90;;;;;;5056273;28;20025;-66
2021/08/27 07:05:31;;;;;;;5.82;4.32;;;15.30;99.90;;;;;;5074080;28;20032;-69
2021/08/27 07:07:58;;;;;;;5.13;4.15;;;15.20;99.90;;;;;;5074146;28;20039;-71
2021/08/27 07:10:24;;;;;;;3.92;3.38;;;15.20;99.90;;;;;;5055919;28;20024;-71
2021/08/27 07:12:51;;;;;;;5.55;4.15;;;15.30;99.90;;;;;;5074129;28;20033;-65
2021/08/27 07:15:17;;;;;;;11.15;4.30;;;15.30;99.90;;;;;;5073829;28;20100;-65
2021/08/27 07:17:44;;;;;;;6.57;3.78;;;15.30;99.90;;;;;;5055386;28;20025;-66
2021/08/27 07:20:11;;;;;;;6.93;3.80;;;15.30;99.90;;;;;;5055611;28;20064;-67
2021/08/27 07:22:37;;;;;;;8.27;4.25;;;15.30;99.90;;;;;;5073929;28;20056;-66
2021/08/27 07:25:04;;;;;;;7.22;3.75;;;15.20;99.90;;;;;;5072777;28;20486;-66
2021/08/27 07:27:30;;;;;;;9.60;4.40;;;15.30;99.90;;;;;;5073958;28;20037;-65
2021/08/27 07:29:56;;;;;;;10.63;3.78;;;15.30;99.90;;;;;;5073533;28;20107;-65
2021/08/27 07:32:21;;;;;;;6.75;4.65;;;15.40;99.90;;;;;;5073116;28;20434;-66
2021/08/27 07:34:48;;;;;;;9.05;4.40;;;15.50;99.90;;;;;;5073106;28;20037;-65
2021/08/27 07:37:14;;;;;;;8.48;4.53;;;15.70;99.90;;;;;;5073551;28;20031;-65
2021/08/27 07:39:40;;;;;;;9.48;4.63;;;15.70;99.90;;;;;;5073392;28;20070;-65
2021/08/27 07:42:08;;;;;;;8.82;3.83;;;15.80;99.90;;;;;;5073278;28;20028;-65
2021/08/27 07:44:34;;;;;;;8.07;3.78;;;15.80;99.90;;;;;;5073341;28;20078;-65
2021/08/27 07:47:00;;;;;;;5.35;4.13;;;15.80;99.90;;;;;;5073149;28;20029;-66
2021/08/27 07:49:26;;;;;;;8.60;4.45;;;16.00;99.90;;;;;;5073167;28;20465;-67
2021/08/27 07:51:53;;;;;;;5.10;3.90;;;16.10;99.90;;;;;;5073346;28;20030;-65
2021/08/27 07:54:20;;;;;;;4.63;3.97;;;16.10;99.90;;;;;;5073290;28;20082;-66
2021/08/27 07:56:46;;;;;;;5.13;4.22;;;16.10;99.90;;;;;;5055276;28;20029;-66
2021/08/27 07:59:12;;;;;;;6.13;4.13;;;16.20;99.90;;;;;;5055271;28;20029;-65
2021/08/27 08:01:38;;;;;;;7.20;3.85;;;16.20;99.90;;;;;;5072987;28;20089;-65
2021/08/27 08:04:05;;;;;;;6.18;5.05;;;16.20;99.90;;;;;;5055108;28;20028;-66
2021/08/27 08:06:31;;;;;;;5.13;4.18;;;16.20;99.90;;;;;;5055055;28;20037;-65
2021/08/27 08:08:59;;;;;;;5.15;4.43;;;16.20;99.90;;;;;;5055016;28;20025;-65
2021/08/27 08:11:26;;;;;;;4.78;3.97;;;16.20;99.90;;;;;;5073289;28;20035;-65
2021/08/27 08:13:51;;;;;;;5.88;4.13;;;16.30;99.90;;;;;;5072706;28;20465;-66
2021/08/27 08:16:17;;;;;;;5.10;3.92;;;16.30;99.90;;;;;;5073004;28;20029;-65
2021/08/27 08:18:43;;;;;;;4.93;4.25;;;16.30;99.90;;;;;;5054685;28;20031;-66
2021/08/27 08:21:09;;;;;;;7.78;4.10;;;16.30;99.90;;;;;;5072822;28;20032;-66
2021/08/27 08:23:35;;;;;;;7.00;4.25;;;16.10;99.90;;;;;;5054730;28;20115;-66
2021/08/27 08:26:02;;;;;;;9.48;5.72;;;16.10;99.90;;;;;;5072349;28;20031;-66
2021/08/27 08:28:28;;;;;;;6.03;4.93;;;16.20;99.90;;;;;;5072982;28;20094;-68
2021/08/27 08:30:54;;;;;;;5.80;4.40;;;16.20;99.90;;;;;;5072368;28;20032;-66
2021/08/27 08:33:20;;;;;;;5.97;4.57;;;16.20;99.90;;;;;;5054959;28;20029;-64
2021/08/27 08:35:46;;;;;;;9.93;4.93;;;16.20;99.90;;;;;;5054831;28;20032;-64
2021/08/27 08:38:12;;;;;;;5.20;4.45;;;16.10;99.90;;;;;;5072797;28;20024;-65
2021/08/27 08:40:42;;;;;;;9.63;4.55;;;16.10;99.90;;;;;;5054564;28;20516;-65
2021/08/27 08:43:13;;;;;;;5.30;4.80;;;16.20;99.90;;;;;;5073074;28;20426;-65
2021/08/27 08:45:50;;;;;;;7.43;5.10;;;16.10;99.90;;;;;;5054453;28;20453;-65
2021/08/27 08:48:21;;;;;;;5.97;4.63;;;16.10;99.90;;;;;;5072787;28;20082;-66
2021/08/27 08:50:48;;;;;;;8.82;6.00;;;16.10;99.90;;;;;;5054703;28;20028;-68
2021/08/27 08:53:14;;;;;;;9.60;7.55;;;16.10;99.90;;;;;;5072745;28;20032;-68
2021/08/27 08:55:41;;;;;;;12.93;7.22;;;16.00;99.90;;;;;;5075197;28;20154;-65
2021/08/27 08:58:08;;;;;;;8.25;6.50;;;16.10;99.90;;;;;;5058694;28;20025;-67
2021/08/27 09:00:37;;;;;;;7.25;5.53;;;16.10;99.90;;;;;;5076323;28;20115;-65
2021/08/27 09:03:04;;;;;;;9.18;5.47;;;16.20;99.90;;;;;;5076088;28;20552;-70
2021/08/27 09:05:29;;;;;;;5.43;4.63;;;16.20;99.90;;;;;;5076103;28;20029;-66
2021/08/27 09:07:56;;;;;;;6.80;5.32;;;16.30;99.90;;;;;;5076498;28;20032;-67
2021/08/27 09:10:23;;;;;;;6.65;5.40;;;16.30;99.90;;;;;;5076282;28;20036;-66
2021/08/27 09:12:50;;;;;;;6.20;5.30;;;16.30;99.90;;;;;;5076480;28;20473;-66
2021/08/27 09:15:23;;;;;;;7.28;5.90;;;16.30;99.90;;;;;;5076295;28;20032;-66
2021/08/27 09:17:50;;;;;;;7.55;5.63;;;16.40;99.90;;;;;;5076320;28;20086;-66
2021/08/27 09:20:28;;;;;;;8.68;6.28;;;16.50;99.90;;;;;;5058092;28;20031;-66
2021/08/27 09:23:04;;;;;;;9.95;7.45;;;16.60;99.90;;;;;;5058215;28;20056;-66
2021/08/27 09:25:32;;;;;;;11.55;9.25;;;16.70;99.90;;;;;;5058082;28;20024;-67
2021/08/27 09:28:01;;;;;;;16.48;11.27;;;16.60;99.90;;;;;;5076059;28;20055;-67
2021/08/27 09:30:28;;;;;;;9.13;6.97;;;16.70;99.90;;;;;;5075819;28;20071;-66
2021/08/27 09:32:55;;;;;;;7.70;5.40;;;16.60;99.90;;;;;;5076360;28;20021;-66
2021/08/27 09:35:23;;;;;;;7.57;5.15;;;16.50;99.90;;;;;;5058002;28;20033;-66
2021/08/27 09:37:53;;;;;;;6.78;5.78;;;16.50;99.90;;;;;;5075611;28;20481;-66
2021/08/27 09:40:29;;;;;;;6.38;5.43;;;16.50;99.90;;;;;;5075881;28;20063;-66
2021/08/27 09:42:56;;;;;;;8.75;5.57;;;16.50;99.90;;;;;;5075890;28;20433;-66
2021/08/27 09:45:37;;;;;;;7.85;6.35;;;16.60;99.90;;;;;;5075425;28;20103;-66
2021/08/27 09:48:10;;;;;;;9.60;6.35;;;16.60;99.90;;;;;;5075667;28;20491;-65
2021/08/27 09:50:38;;;;;;;8.40;6.20;;;16.60;99.90;;;;;;5075967;28;20031;-65
2021/08/27 09:53:11;;;;;;;9.55;6.60;;;16.70;99.90;;;;;;5075505;28;20499;-65
2021/08/27 09:55:51;;;;;;;8.15;6.50;;;16.60;99.90;;;;;;5075669;28;20094;-65
2021/08/27 09:58:17;;;;;;;9.15;6.20;;;16.60;99.90;;;;;;5057632;28;20049;-68
2021/08/27 10:00:47;;;;;;;7.10;6.18;;;16.50;99.90;;;;;;5075015;28;20062;-65
2021/08/27 10:03:26;;;;;;;7.55;6.05;;;16.60;99.90;;;;;;5075560;28;20461;-65
2021/08/27 10:05:54;;;;;;;8.90;7.20;;;16.70;99.90;;;;;;5074436;28;20115;-67
2021/08/27 10:08:28;;;;;;;7.32;6.22;;;16.70;99.90;;;;;;5075100;28;20141;-66
2021/08/27 10:11:17;;;;;;;8.45;6.50;;;16.80;99.90;;;;;;5056968;28;20062;-68
2021/08/27 10:13:44;;;;;;;9.50;6.32;;;16.70;99.90;;;;;;5057224;28;20029;-68
2021/08/27 10:16:11;;;;;;;10.57;6.35;;;16.60;99.90;;;;;;5075212;28;20465;-68
2021/08/27 10:18:37;;;;;;;6.93;5.70;;;16.60;99.90;;;;;;5075437;28;20024;-68
2021/08/27 10:21:05;;;;;;;10.75;6.20;;;16.70;99.90;;;;;;5075392;28;20033;-69
2021/08/27 10:23:31;;;;;;;10.82;7.65;;;16.60;99.90;;;;;;5075134;28;20021;-68
2021/08/27 10:25:58;;;;;;;12.52;9.25;;;16.50;99.90;;;;;;5074950;28;20029;-68
2021/08/27 10:28:31;;;;;;;8.93;7.45;;;16.40;99.90;;;;;;5056941;28;20086;-67
2021/08/27 10:30:58;;;;;;;8.80;7.07;;;16.40;99.90;;;;;;5074986;28;20077;-67
2021/08/27 10:33:44;;;;;;;10.82;8.32;;;16.40;99.90;;;;;;5075003;28;20032;-71
2021/08/27 10:36:22;;;;;;;8.93;7.13;;;16.30;99.90;;;;;;5057515;28;20091;-69
2021/08/27 10:38:51;;;;;;;13.15;7.30;;;16.20;99.90;;;;;;5074496;28;20028;-68
2021/08/27 10:41:28;;;;;;;11.85;6.68;;;16.20;99.90;;;;;;5074743;28;20111;-68
2021/08/27 10:44:01;;;;;;;11.38;6.90;;;16.30;99.90;;;;;;5056696;28;20085;-68
2021/08/27 10:46:45;;;;;;;8.63;6.20;;;16.30;99.90;;;;;;5074894;28;20055;-69
2021/08/27 10:49:16;;;;;;;8.48;6.50;;;16.40;99.90;;;;;;5056683;28;20024;-69
2021/08/27 10:51:46;;;;;;;12.27;7.35;;;16.50;99.90;;;;;;5074280;28;20029;-68
2021/08/27 10:54:14;;;;;;;9.60;6.50;;;16.40;99.90;;;;;;5056573;28;20469;-69
2021/08/27 10:56:51;;;;;;;8.10;5.90;;;16.40;99.90;;;;;;5074390;28;20471;-68
2021/08/27 10:59:22;;;;;;;8.73;6.80;;;16.40;99.90;;;;;;5074343;28;20025;-67
2021/08/27 11:02:00;;;;;;;8.50;6.88;;;16.50;99.90;;;;;;5073980;28;20114;-69
2021/08/27 11:04:44;;;;;;;10.43;6.82;;;16.50;99.90;;;;;;5074552;28;20075;-67
2021/08/27 11:07:25;;;;;;;9.57;6.93;;;16.60;99.90;;;;;;5074272;28;20163;-68
2021/08/27 11:10:09;;;;;;;10.98;7.05;;;16.60;99.90;;;;;;5073877;28;20477;-68
2021/08/27 11:12:36;;;;;;;10.00;7.13;;;16.50;99.90;;;;;;5074178;28;20031;-68
2021/08/27 11:15:29;;;;;;;8.25;6.15;;;16.60;99.90;;;;;;5073778;28;20464;-69
2021/08/27 11:18:21;;;;;;;8.57;6.80;;;16.80;99.90;;;;;;5073614;28;20086;-68
2021/08/27 11:20:49;;;;;;;12.38;7.22;;;17.10;99.90;;;;;;5074038;28;20024;-67
2021/08/27 11:23:17;;;;;;;10.85;7.18;;;17.30;99.90;;;;;;5055986;28;20024;-68
2021/08/27 11:26:02;;;;;;;11.95;8.07;;;17.40;99.90;;;;;;5073727;28;20036;-68
2021/08/27 11:28:32;;;;;;;11.48;8.02;;;17.60;99.90;;;;;;5055872;28;20431;-67
2021/08/27 11:31:06;;;;;;;6.85;5.68;;;17.60;99.90;;;;;;5073722;28;20024;-67
2021/08/27 11:33:41;;;;;;;8.20;5.47;;;17.30;99.90;;;;;;5055993;28;20439;-70
2021/08/27 11:36:08;;;;;;;9.00;5.60;;;17.20;99.90;;;;;;5073607;28;20107;-68
2021/08/27 11:38:34;;;;;;;13.68;6.15;;;17.10;99.90;;;;;;5073245;28;20469;-68
2021/08/27 11:41:02;;;;;;;7.50;6.20;;;17.20;99.90;;;;;;5055376;28;20025;-67
2021/08/27 11:43:44;;;;;;;7.78;5.95;;;17.20;99.90;;;;;;5073538;28;20025;-67
2021/08/27 11:46:23;;;;;;;9.48;5.25;;;17.20;99.90;;;;;;5073527;28;20032;-66
2021/08/27 11:48:56;;;;;;;10.20;5.82;;;17.20;99.90;;;;;;5073418;28;20037;-66
2021/08/27 11:51:27;;;;;;;15.48;7.53;;;17.20;99.90;;;;;;5073160;28;20050;-70
2021/08/27 11:53:53;;;;;;;9.57;6.45;;;17.20;99.90;;;;;;5073727;28;20048;-67
2021/08/27 11:56:23;;;;;;;7.18;5.03;;;17.20;99.90;;;;;;5055247;28;20469;-66
2021/08/27 11:58:49;;;;;;;6.57;5.63;;;17.20;99.90;;;;;;5073292;28;20070;-66
2021/08/27 12:01:30;;;;;;;7.50;5.10;;;17.10;99.90;;;;;;5080236;28;20044;-66
2021/08/27 12:03:56;;;;;;;6.10;4.78;;;17.20;99.90;;;;;;5075272;28;20047;-66
2021/08/27 12:06:26;;;;;;;8.55;4.93;;;17.10;99.90;;;;;;5093328;28;20036;-67
2021/08/27 12:08:54;;;;;;;5.95;4.63;;;17.10;99.90;;;;;;5093056;28;20390;-66
2021/08/27 12:11:30;;;;;;;6.80;4.72;;;17.00;99.90;;;;;;5093257;28;20097;-69
2021/08/27 12:13:56;;;;;;;5.47;4.32;;;16.90;99.90;;;;;;5093293;28;20159;-67
2021/08/27 12:16:22;;;;;;;6.88;4.45;;;16.90;99.90;;;;;;5075177;28;20159;-68
2021/08/27 12:18:52;;;;;;;4.60;4.20;;;16.90;99.90;;;;;;5093247;28;20460;-67
2021/08/27 12:21:24;;;;;;;7.97;4.85;;;16.80;99.90;;;;;;5093182;28;20119;-67
2021/08/27 12:24:08;;;;;;;6.32;4.85;;;16.80;99.90;;;;;;5093296;28;20480;-67
2021/08/27 12:26:38;;;;;;;7.20;5.05;;;16.80;99.90;;;;;;5093218;28;20050;-68
2021/08/27 12:29:15;;;;;;;6.20;4.50;;;16.70;99.90;;;;;;5092324;28;20060;-68
2021/08/27 12:31:41;;;;;;;6.13;5.30;;;16.70;99.90;;;;;;5092849;28;20032;-67
2021/08/27 12:34:08;;;;;;;6.57;4.90;;;16.70;99.90;;;;;;5093369;28;20027;-68
2021/08/27 12:36:38;;;;;;;7.28;4.90;;;16.70;99.90;;;;;;5074997;28;20418;-68
2021/08/27 12:39:05;;;;;;;5.10;4.07;;;16.70;99.90;;;;;;5092723;28;20392;-68
2021/08/27 12:41:35;;;;;;;5.53;4.80;;;16.60;99.90;;;;;;5074830;28;20444;-67
2021/08/27 12:44:12;;;;;;;7.20;4.90;;;16.60;99.90;;;;;;5074856;28;20111;-67
2021/08/27 12:46:48;;;;;;;9.38;5.35;;;16.60;99.90;;;;;;5092895;28;20028;-67
2021/08/27 12:49:19;;;;;;;6.35;5.00;;;16.70;99.90;;;;;;5092971;28;20483;-67
2021/08/27 12:51:48;;;;;;;5.28;4.78;;;16.70;99.90;;;;;;5092923;28;20028;-68
2021/08/27 12:54:14;;;;;;;5.13;4.63;;;16.80;99.90;;;;;;5074998;28;20139;-68